sensor_id;sensor_type;location;lat;lon;timestamp;P1;durP1;ratioP1;P2;durP2;ratioP2
26946;SDS011;14501;52.282;10.560;2022-11-15T00:00:25;14.80;;;10.45;;
26946;SDS011;14501;52.282;10.560;2022-11-15T00:02:52;18.08;;;11.18;;
26946;SDS011;14501;52.282;10.560;2022-11-15T00:05:18;17.83;;;10.85;;
26946;SDS011;14501;52.282;10.560;2022-11-15T00:07:43;18.02;;;10.85;;
26946;SDS011;14501;52.282;10.560;2022-11-15T00:10:09;19.45;;;12.50;;
26946;SDS011;14501;52.282;10.560;2022-11-15T00:12:35;21.83;;;11.90;;
26946;SDS011;14501;52.282;10.560;2022-11-15T00:15:01;20.48;;;12.38;;
26946;SDS011;14501;52.282;10.560;2022-11-15T00:17:27;22.85;;;12.50;;
26946;SDS011;14501;52.282;10.560;2022-11-15T00:19:53;16.45;;;10.80;;
26946;SDS011;14501;52.282;10.560;2022-11-15T00:22:18;21.90;;;12.10;;
26946;SDS011;14501;52.282;10.560;2022-11-15T00:24:44;17.13;;;10.95;;
26946;SDS011;14501;52.282;10.560;2022-11-15T00:27:09;18.30;;;11.20;;
26946;SDS011;14501;52.282;10.560;2022-11-15T00:29:35;20.48;;;11.73;;
26946;SDS011;14501;52.282;10.560;2022-11-15T00:32:03;18.25;;;12.05;;
26946;SDS011;14501;52.282;10.560;2022-11-15T00:34:29;17.23;;;10.63;;
26946;SDS011;14501;52.282;10.560;2022-11-15T00:36:55;18.05;;;11.07;;
26946;SDS011;14501;52.282;10.560;2022-11-15T00:39:20;21.98;;;12.00;;
26946;SDS011;14501;52.282;10.560;2022-11-15T00:41:46;17.83;;;11.40;;
26946;SDS011;14501;52.282;10.560;2022-11-15T00:44:12;19.15;;;10.23;;
26946;SDS011;14501;52.282;10.560;2022-11-15T00:46:38;16.83;;;11.23;;
26946;SDS011;14501;52.282;10.560;2022-11-15T00:49:04;19.58;;;11.25;;
26946;SDS011;14501;52.282;10.560;2022-11-15T00:51:29;19.55;;;11.10;;
26946;SDS011;14501;52.282;10.560;2022-11-15T00:53:55;18.10;;;11.85;;
26946;SDS011;14501;52.282;10.560;2022-11-15T00:56:21;20.55;;;12.35;;
26946;SDS011;14501;52.282;10.560;2022-11-15T00:58:47;21.27;;;11.52;;
26946;SDS011;14501;52.282;10.560;2022-11-15T01:01:13;19.45;;;11.40;;
26946;SDS011;14501;52.282;10.560;2022-11-15T01:03:40;19.77;;;11.40;;
26946;SDS011;14501;52.282;10.560;2022-11-15T01:06:07;18.83;;;11.57;;
26946;SDS011;14501;52.282;10.560;2022-11-15T01:08:33;21.50;;;11.80;;
26946;SDS011;14501;52.282;10.560;2022-11-15T01:11:03;24.63;;;12.98;;
26946;SDS011;14501;52.282;10.560;2022-11-15T01:13:31;21.40;;;13.38;;
26946;SDS011;14501;52.282;10.560;2022-11-15T01:15:58;25.25;;;13.35;;
26946;SDS011;14501;52.282;10.560;2022-11-15T01:18:30;23.67;;;13.23;;
26946;SDS011;14501;52.282;10.560;2022-11-15T01:20:55;25.95;;;13.75;;
26946;SDS011;14501;52.282;10.560;2022-11-15T01:23:21;22.65;;;13.73;;
26946;SDS011;14501;52.282;10.560;2022-11-15T01:25:47;24.05;;;13.32;;
26946;SDS011;14501;52.282;10.560;2022-11-15T01:28:13;23.38;;;12.48;;
26946;SDS011;14501;52.282;10.560;2022-11-15T01:30:39;18.25;;;11.77;;
26946;SDS011;14501;52.282;10.560;2022-11-15T01:33:04;19.83;;;12.20;;
26946;SDS011;14501;52.282;10.560;2022-11-15T01:35:30;20.40;;;11.73;;
26946;SDS011;14501;52.282;10.560;2022-11-15T01:37:55;20.23;;;11.65;;
26946;SDS011;14501;52.282;10.560;2022-11-15T01:40:21;21.30;;;12.10;;
26946;SDS011;14501;52.282;10.560;2022-11-15T01:42:47;20.65;;;12.35;;
26946;SDS011;14501;52.282;10.560;2022-11-15T01:45:16;21.88;;;12.00;;
26946;SDS011;14501;52.282;10.560;2022-11-15T01:47:43;21.55;;;12.73;;
26946;SDS011;14501;52.282;10.560;2022-11-15T01:50:14;19.70;;;11.90;;
26946;SDS011;14501;52.282;10.560;2022-11-15T01:52:43;22.45;;;12.25;;
26946;SDS011;14501;52.282;10.560;2022-11-15T01:55:11;22.95;;;13.15;;
26946;SDS011;14501;52.282;10.560;2022-11-15T01:57:45;23.38;;;13.35;;
26946;SDS011;14501;52.282;10.560;2022-11-15T02:00:15;23.10;;;12.98;;
26946;SDS011;14501;52.282;10.560;2022-11-15T02:02:42;23.33;;;13.35;;
26946;SDS011;14501;52.282;10.560;2022-11-15T02:05:08;21.90;;;12.18;;
26946;SDS011;14501;52.282;10.560;2022-11-15T02:07:34;27.15;;;13.02;;
26946;SDS011;14501;52.282;10.560;2022-11-15T02:10:11;21.08;;;12.15;;
26946;SDS011;14501;52.282;10.560;2022-11-15T02:12:44;23.05;;;12.85;;
26946;SDS011;14501;52.282;10.560;2022-11-15T02:15:11;21.15;;;13.32;;
26946;SDS011;14501;52.282;10.560;2022-11-15T02:17:58;22.98;;;11.88;;
26946;SDS011;14501;52.282;10.560;2022-11-15T02:20:47;19.27;;;11.80;;
26946;SDS011;14501;52.282;10.560;2022-11-15T02:37:11;20.70;;;11.90;;
26946;SDS011;14501;52.282;10.560;2022-11-15T02:39:51;23.08;;;12.68;;
26946;SDS011;14501;52.282;10.560;2022-11-15T02:42:42;22.75;;;12.77;;
26946;SDS011;14501;52.282;10.560;2022-11-15T02:45:36;20.30;;;11.93;;
26946;SDS011;14501;52.282;10.560;2022-11-15T02:48:13;21.15;;;12.73;;
26946;SDS011;14501;52.282;10.560;2022-11-15T02:50:40;27.52;;;12.77;;
26946;SDS011;14501;52.282;10.560;2022-11-15T02:53:08;21.33;;;12.43;;
26946;SDS011;14501;52.282;10.560;2022-11-15T02:55:34;20.92;;;12.43;;
26946;SDS011;14501;52.282;10.560;2022-11-15T02:58:19;21.45;;;11.75;;
26946;SDS011;14501;52.282;10.560;2022-11-15T03:01:16;23.15;;;12.52;;
26946;SDS011;14501;52.282;10.560;2022-11-15T03:06:34;23.00;;;12.35;;
26946;SDS011;14501;52.282;10.560;2022-11-15T03:09:08;20.45;;;11.90;;
26946;SDS011;14501;52.282;10.560;2022-11-15T03:11:47;22.30;;;12.20;;
26946;SDS011;14501;52.282;10.560;2022-11-15T03:16:52;18.70;;;11.60;;
26946;SDS011;14501;52.282;10.560;2022-11-15T03:19:47;19.95;;;12.02;;
26946;SDS011;14501;52.282;10.560;2022-11-15T03:22:16;20.15;;;11.85;;
26946;SDS011;14501;52.282;10.560;2022-11-15T03:24:45;17.27;;;11.27;;
26946;SDS011;14501;52.282;10.560;2022-11-15T03:27:15;19.42;;;10.80;;
26946;SDS011;14501;52.282;10.560;2022-11-15T03:29:46;18.35;;;11.15;;
26946;SDS011;14501;52.282;10.560;2022-11-15T03:32:23;15.27;;;10.57;;
26946;SDS011;14501;52.282;10.560;2022-11-15T03:34:52;16.52;;;10.90;;
26946;SDS011;14501;52.282;10.560;2022-11-15T03:37:24;12.65;;;9.18;;
26946;SDS011;14501;52.282;10.560;2022-11-15T03:39:54;15.48;;;10.18;;
26946;SDS011;14501;52.282;10.560;2022-11-15T03:42:22;15.80;;;9.82;;
26946;SDS011;14501;52.282;10.560;2022-11-15T03:45:01;15.45;;;8.70;;
26946;SDS011;14501;52.282;10.560;2022-11-15T03:50:23;12.88;;;8.98;;
26946;SDS011;14501;52.282;10.560;2022-11-15T03:52:50;13.95;;;9.68;;
26946;SDS011;14501;52.282;10.560;2022-11-15T03:55:17;15.52;;;9.15;;
26946;SDS011;14501;52.282;10.560;2022-11-15T03:57:45;13.98;;;9.35;;
26946;SDS011;14501;52.282;10.560;2022-11-15T04:00:12;15.88;;;9.63;;
26946;SDS011;14501;52.282;10.560;2022-11-15T04:02:38;13.60;;;8.82;;
26946;SDS011;14501;52.282;10.560;2022-11-15T04:05:04;12.00;;;9.07;;
26946;SDS011;14501;52.282;10.560;2022-11-15T04:07:29;16.50;;;9.73;;
26946;SDS011;14501;52.282;10.560;2022-11-15T04:09:55;15.02;;;9.95;;
26946;SDS011;14501;52.282;10.560;2022-11-15T04:12:33;27.45;;;10.75;;
26946;SDS011;14501;52.282;10.560;2022-11-15T04:15:12;20.80;;;10.98;;
26946;SDS011;14501;52.282;10.560;2022-11-15T04:17:46;20.95;;;11.70;;
26946;SDS011;14501;52.282;10.560;2022-11-15T04:23:02;23.65;;;11.68;;
26946;SDS011;14501;52.282;10.560;2022-11-15T04:25:49;21.05;;;12.02;;
26946;SDS011;14501;52.282;10.560;2022-11-15T04:28:17;20.25;;;11.18;;
26946;SDS011;14501;52.282;10.560;2022-11-15T04:30:43;16.48;;;10.43;;
26946;SDS011;14501;52.282;10.560;2022-11-15T04:33:09;23.25;;;11.15;;
26946;SDS011;14501;52.282;10.560;2022-11-15T04:35:35;17.98;;;11.00;;
26946;SDS011;14501;52.282;10.560;2022-11-15T04:38:01;19.80;;;10.95;;
26946;SDS011;14501;52.282;10.560;2022-11-15T04:40:27;15.77;;;11.23;;
26946;SDS011;14501;52.282;10.560;2022-11-15T04:42:53;19.95;;;11.10;;
26946;SDS011;14501;52.282;10.560;2022-11-15T04:45:18;18.75;;;11.73;;
26946;SDS011;14501;52.282;10.560;2022-11-15T04:47:44;17.15;;;11.05;;
26946;SDS011;14501;52.282;10.560;2022-11-15T04:50:11;18.98;;;11.00;;
26946;SDS011;14501;52.282;10.560;2022-11-15T04:52:39;21.05;;;11.32;;
26946;SDS011;14501;52.282;10.560;2022-11-15T04:55:11;16.77;;;11.10;;
26946;SDS011;14501;52.282;10.560;2022-11-15T04:57:37;18.75;;;10.80;;
26946;SDS011;14501;52.282;10.560;2022-11-15T05:00:04;17.05;;;10.32;;
26946;SDS011;14501;52.282;10.560;2022-11-15T05:02:31;18.58;;;10.68;;
26946;SDS011;14501;52.282;10.560;2022-11-15T05:05:15;16.00;;;10.75;;
26946;SDS011;14501;52.282;10.560;2022-11-15T05:07:41;16.70;;;10.38;;
26946;SDS011;14501;52.282;10.560;2022-11-15T05:10:07;20.40;;;11.02;;
26946;SDS011;14501;52.282;10.560;2022-11-15T05:12:32;22.13;;;10.82;;
26946;SDS011;14501;52.282;10.560;2022-11-15T05:14:58;15.85;;;10.60;;
26946;SDS011;14501;52.282;10.560;2022-11-15T05:17:24;16.27;;;10.20;;
26946;SDS011;14501;52.282;10.560;2022-11-15T05:19:49;17.35;;;9.82;;
26946;SDS011;14501;52.282;10.560;2022-11-15T05:22:16;16.67;;;10.57;;
26946;SDS011;14501;52.282;10.560;2022-11-15T05:24:43;19.13;;;10.35;;
26946;SDS011;14501;52.282;10.560;2022-11-15T05:27:08;16.25;;;9.25;;
26946;SDS011;14501;52.282;10.560;2022-11-15T05:29:34;16.92;;;9.73;;
26946;SDS011;14501;52.282;10.560;2022-11-15T05:32:03;17.60;;;10.02;;
26946;SDS011;14501;52.282;10.560;2022-11-15T05:34:30;13.20;;;8.65;;
26946;SDS011;14501;52.282;10.560;2022-11-15T05:36:56;15.75;;;9.52;;
26946;SDS011;14501;52.282;10.560;2022-11-15T05:39:21;14.82;;;9.15;;
26946;SDS011;14501;52.282;10.560;2022-11-15T05:41:48;17.48;;;10.35;;
26946;SDS011;14501;52.282;10.560;2022-11-15T05:44:18;15.38;;;9.75;;
26946;SDS011;14501;52.282;10.560;2022-11-15T05:46:46;13.50;;;9.13;;
26946;SDS011;14501;52.282;10.560;2022-11-15T05:49:14;17.33;;;10.43;;
26946;SDS011;14501;52.282;10.560;2022-11-15T05:51:44;16.67;;;9.82;;
26946;SDS011;14501;52.282;10.560;2022-11-15T05:54:12;16.42;;;9.55;;
26946;SDS011;14501;52.282;10.560;2022-11-15T05:56:38;15.30;;;9.70;;
26946;SDS011;14501;52.282;10.560;2022-11-15T05:59:04;16.25;;;9.57;;
26946;SDS011;14501;52.282;10.560;2022-11-15T06:01:32;14.95;;;9.38;;
26946;SDS011;14501;52.282;10.560;2022-11-15T06:03:57;18.38;;;9.65;;
26946;SDS011;14501;52.282;10.560;2022-11-15T06:06:23;14.73;;;10.07;;
26946;SDS011;14501;52.282;10.560;2022-11-15T06:08:49;22.63;;;9.82;;
26946;SDS011;14501;52.282;10.560;2022-11-15T06:11:14;21.73;;;10.13;;
26946;SDS011;14501;52.282;10.560;2022-11-15T06:13:40;17.65;;;9.90;;
26946;SDS011;14501;52.282;10.560;2022-11-15T06:16:05;17.42;;;11.13;;
26946;SDS011;14501;52.282;10.560;2022-11-15T06:18:32;16.17;;;10.30;;
26946;SDS011;14501;52.282;10.560;2022-11-15T06:20:59;16.92;;;9.75;;
26946;SDS011;14501;52.282;10.560;2022-11-15T06:23:25;15.85;;;10.20;;
26946;SDS011;14501;52.282;10.560;2022-11-15T06:25:50;16.45;;;10.02;;
26946;SDS011;14501;52.282;10.560;2022-11-15T06:28:16;22.17;;;11.23;;
26946;SDS011;14501;52.282;10.560;2022-11-15T06:30:41;18.70;;;9.85;;
26946;SDS011;14501;52.282;10.560;2022-11-15T06:33:07;19.10;;;11.07;;
26946;SDS011;14501;52.282;10.560;2022-11-15T06:35:34;20.20;;;11.43;;
26946;SDS011;14501;52.282;10.560;2022-11-15T06:38:04;17.85;;;9.90;;
26946;SDS011;14501;52.282;10.560;2022-11-15T06:40:35;19.00;;;11.40;;
26946;SDS011;14501;52.282;10.560;2022-11-15T06:43:02;19.63;;;11.32;;
26946;SDS011;14501;52.282;10.560;2022-11-15T06:45:29;17.98;;;10.70;;
26946;SDS011;14501;52.282;10.560;2022-11-15T06:47:57;16.88;;;10.77;;
26946;SDS011;14501;52.282;10.560;2022-11-15T06:50:23;17.20;;;10.45;;
26946;SDS011;14501;52.282;10.560;2022-11-15T06:52:49;19.52;;;11.10;;
26946;SDS011;14501;52.282;10.560;2022-11-15T06:55:14;20.25;;;11.10;;
26946;SDS011;14501;52.282;10.560;2022-11-15T06:57:50;17.50;;;11.15;;
26946;SDS011;14501;52.282;10.560;2022-11-15T07:00:17;18.30;;;11.00;;
26946;SDS011;14501;52.282;10.560;2022-11-15T07:02:44;19.35;;;11.35;;
26946;SDS011;14501;52.282;10.560;2022-11-15T07:05:10;16.55;;;10.20;;
26946;SDS011;14501;52.282;10.560;2022-11-15T07:07:37;16.60;;;10.30;;
26946;SDS011;14501;52.282;10.560;2022-11-15T07:10:02;21.08;;;10.43;;
26946;SDS011;14501;52.282;10.560;2022-11-15T07:12:28;17.40;;;10.32;;
26946;SDS011;14501;52.282;10.560;2022-11-15T07:14:54;16.80;;;10.93;;
26946;SDS011;14501;52.282;10.560;2022-11-15T07:17:19;17.52;;;10.55;;
26946;SDS011;14501;52.282;10.560;2022-11-15T07:19:45;20.08;;;11.07;;
26946;SDS011;14501;52.282;10.560;2022-11-15T07:22:10;18.92;;;10.40;;
26946;SDS011;14501;52.282;10.560;2022-11-15T07:24:36;19.38;;;10.88;;
26946;SDS011;14501;52.282;10.560;2022-11-15T07:27:01;20.08;;;10.38;;
26946;SDS011;14501;52.282;10.560;2022-11-15T07:29:27;19.13;;;11.15;;
26946;SDS011;14501;52.282;10.560;2022-11-15T07:31:53;15.98;;;10.35;;
26946;SDS011;14501;52.282;10.560;2022-11-15T07:34:18;18.00;;;10.27;;
26946;SDS011;14501;52.282;10.560;2022-11-15T07:36:44;19.65;;;10.23;;
26946;SDS011;14501;52.282;10.560;2022-11-15T07:39:10;18.38;;;10.13;;
26946;SDS011;14501;52.282;10.560;2022-11-15T07:41:37;17.40;;;10.40;;
26946;SDS011;14501;52.282;10.560;2022-11-15T07:44:03;15.35;;;10.02;;
26946;SDS011;14501;52.282;10.560;2022-11-15T07:46:29;20.90;;;9.63;;
26946;SDS011;14501;52.282;10.560;2022-11-15T07:48:55;19.10;;;9.15;;
26946;SDS011;14501;52.282;10.560;2022-11-15T07:51:21;14.73;;;9.00;;
26946;SDS011;14501;52.282;10.560;2022-11-15T07:53:46;16.10;;;9.45;;
26946;SDS011;14501;52.282;10.560;2022-11-15T07:56:12;13.18;;;8.18;;
26946;SDS011;14501;52.282;10.560;2022-11-15T07:58:38;11.32;;;8.18;;
26946;SDS011;14501;52.282;10.560;2022-11-15T08:01:07;12.90;;;7.57;;
26946;SDS011;14501;52.282;10.560;2022-11-15T08:03:34;12.27;;;6.85;;
26946;SDS011;14501;52.282;10.560;2022-11-15T08:06:00;12.05;;;7.03;;
26946;SDS011;14501;52.282;10.560;2022-11-15T08:08:27;10.27;;;6.93;;
26946;SDS011;14501;52.282;10.560;2022-11-15T08:10:52;12.82;;;5.85;;
26946;SDS011;14501;52.282;10.560;2022-11-15T08:13:18;11.68;;;6.18;;
26946;SDS011;14501;52.282;10.560;2022-11-15T08:15:44;10.40;;;6.22;;
26946;SDS011;14501;52.282;10.560;2022-11-15T08:18:11;7.47;;;5.43;;
26946;SDS011;14501;52.282;10.560;2022-11-15T08:20:38;9.57;;;6.45;;
26946;SDS011;14501;52.282;10.560;2022-11-15T08:23:04;9.05;;;5.40;;
26946;SDS011;14501;52.282;10.560;2022-11-15T08:25:31;9.13;;;6.10;;
26946;SDS011;14501;52.282;10.560;2022-11-15T08:27:59;9.95;;;5.30;;
26946;SDS011;14501;52.282;10.560;2022-11-15T08:30:26;7.43;;;4.97;;
26946;SDS011;14501;52.282;10.560;2022-11-15T08:32:53;9.93;;;5.15;;
26946;SDS011;14501;52.282;10.560;2022-11-15T08:35:20;10.90;;;5.15;;
26946;SDS011;14501;52.282;10.560;2022-11-15T08:37:46;8.18;;;5.15;;
26946;SDS011;14501;52.282;10.560;2022-11-15T08:40:12;6.75;;;4.97;;
26946;SDS011;14501;52.282;10.560;2022-11-15T08:42:38;9.45;;;4.80;;
26946;SDS011;14501;52.282;10.560;2022-11-15T08:45:04;8.43;;;5.20;;
26946;SDS011;14501;52.282;10.560;2022-11-15T08:47:30;10.35;;;5.30;;
26946;SDS011;14501;52.282;10.560;2022-11-15T08:49:56;10.73;;;5.88;;
26946;SDS011;14501;52.282;10.560;2022-11-15T08:52:21;7.53;;;4.90;;
26946;SDS011;14501;52.282;10.560;2022-11-15T08:54:47;8.90;;;5.03;;
26946;SDS011;14501;52.282;10.560;2022-11-15T08:57:13;7.93;;;5.65;;
26946;SDS011;14501;52.282;10.560;2022-11-15T08:59:39;9.95;;;5.68;;
26946;SDS011;14501;52.282;10.560;2022-11-15T09:02:05;11.02;;;5.57;;
26946;SDS011;14501;52.282;10.560;2022-11-15T09:04:31;8.40;;;5.93;;
26946;SDS011;14501;52.282;10.560;2022-11-15T09:06:57;9.77;;;5.57;;
26946;SDS011;14501;52.282;10.560;2022-11-15T09:09:23;8.10;;;5.50;;
26946;SDS011;14501;52.282;10.560;2022-11-15T09:11:48;9.55;;;5.20;;
26946;SDS011;14501;52.282;10.560;2022-11-15T09:14:15;7.28;;;5.20;;
26946;SDS011;14501;52.282;10.560;2022-11-15T09:16:41;8.48;;;4.93;;
26946;SDS011;14501;52.282;10.560;2022-11-15T09:19:06;10.50;;;5.20;;
26946;SDS011;14501;52.282;10.560;2022-11-15T09:21:32;9.57;;;5.22;;
26946;SDS011;14501;52.282;10.560;2022-11-15T09:23:58;11.13;;;6.03;;
26946;SDS011;14501;52.282;10.560;2022-11-15T09:26:23;7.13;;;4.97;;
26946;SDS011;14501;52.282;10.560;2022-11-15T09:28:49;8.82;;;5.20;;
26946;SDS011;14501;52.282;10.560;2022-11-15T09:31:15;9.75;;;5.45;;
26946;SDS011;14501;52.282;10.560;2022-11-15T09:33:43;9.20;;;5.57;;
26946;SDS011;14501;52.282;10.560;2022-11-15T09:36:10;9.00;;;5.53;;
26946;SDS011;14501;52.282;10.560;2022-11-15T09:38:36;9.70;;;5.70;;
26946;SDS011;14501;52.282;10.560;2022-11-15T09:49:15;9.52;;;4.78;;
26946;SDS011;14501;52.282;10.560;2022-11-15T09:51:45;7.47;;;4.10;;
26946;SDS011;14501;52.282;10.560;2022-11-15T09:56:46;7.32;;;4.85;;
26946;SDS011;14501;52.282;10.560;2022-11-15T10:04:40;7.68;;;4.50;;
26946;SDS011;14501;52.282;10.560;2022-11-15T10:07:20;7.53;;;4.32;;
26946;SDS011;14501;52.282;10.560;2022-11-15T10:12:28;9.02;;;4.40;;
26946;SDS011;14501;52.282;10.560;2022-11-15T10:14:58;9.23;;;4.82;;
26946;SDS011;14501;52.282;10.560;2022-11-15T10:17:48;8.27;;;4.70;;
26946;SDS011;14501;52.282;10.560;2022-11-15T10:20:28;8.93;;;4.40;;
26946;SDS011;14501;52.282;10.560;2022-11-15T10:22:56;6.68;;;4.57;;
26946;SDS011;14501;52.282;10.560;2022-11-15T10:25:25;7.38;;;4.88;;
26946;SDS011;14501;52.282;10.560;2022-11-15T10:27:54;8.20;;;4.70;;
26946;SDS011;14501;52.282;10.560;2022-11-15T10:30:30;7.68;;;4.75;;
26946;SDS011;14501;52.282;10.560;2022-11-15T10:33:08;9.95;;;5.15;;
26946;SDS011;14501;52.282;10.560;2022-11-15T10:46:32;7.50;;;3.78;;
26946;SDS011;14501;52.282;10.560;2022-11-15T10:51:48;6.28;;;4.10;;
26946;SDS011;14501;52.282;10.560;2022-11-15T10:54:36;6.60;;;4.15;;
26946;SDS011;14501;52.282;10.560;2022-11-15T10:57:07;6.85;;;3.92;;
26946;SDS011;14501;52.282;10.560;2022-11-15T10:59:38;7.20;;;3.70;;
26946;SDS011;14501;52.282;10.560;2022-11-15T11:05:06;5.57;;;3.30;;
26946;SDS011;14501;52.282;10.560;2022-11-15T11:10:36;6.25;;;3.33;;
26946;SDS011;14501;52.282;10.560;2022-11-15T11:13:12;6.07;;;3.22;;
26946;SDS011;14501;52.282;10.560;2022-11-15T11:21:09;4.05;;;2.92;;
26946;SDS011;14501;52.282;10.560;2022-11-15T11:23:49;4.63;;;3.10;;
26946;SDS011;14501;52.282;10.560;2022-11-15T11:32:28;7.07;;;3.03;;
26946;SDS011;14501;52.282;10.560;2022-11-15T11:37:55;4.63;;;2.80;;
26946;SDS011;14501;52.282;10.560;2022-11-15T11:40:28;5.00;;;3.10;;
26946;SDS011;14501;52.282;10.560;2022-11-15T11:43:08;4.60;;;3.00;;
26946;SDS011;14501;52.282;10.560;2022-11-15T11:51:21;7.15;;;3.10;;
26946;SDS011;14501;52.282;10.560;2022-11-15T11:54:03;6.20;;;3.60;;
26946;SDS011;14501;52.282;10.560;2022-11-15T11:56:35;9.82;;;3.70;;
26946;SDS011;14501;52.282;10.560;2022-11-15T11:59:05;7.05;;;3.40;;
26946;SDS011;14501;52.282;10.560;2022-11-15T12:01:41;6.75;;;3.53;;
26946;SDS011;14501;52.282;10.560;2022-11-15T12:04:13;8.00;;;3.50;;
26946;SDS011;14501;52.282;10.560;2022-11-15T12:06:47;7.00;;;3.60;;
26946;SDS011;14501;52.282;10.560;2022-11-15T12:09:30;5.28;;;3.40;;
26946;SDS011;14501;52.282;10.560;2022-11-15T12:15:03;6.10;;;3.63;;
26946;SDS011;14501;52.282;10.560;2022-11-15T12:17:38;5.40;;;3.40;;
26946;SDS011;14501;52.282;10.560;2022-11-15T12:25:43;11.50;;;3.80;;
26946;SDS011;14501;52.282;10.560;2022-11-15T12:28:14;5.70;;;3.80;;
26946;SDS011;14501;52.282;10.560;2022-11-15T12:30:44;6.53;;;3.78;;
26946;SDS011;14501;52.282;10.560;2022-11-15T12:33:37;7.32;;;3.90;;
26946;SDS011;14501;52.282;10.560;2022-11-15T12:41:15;6.95;;;4.10;;
26946;SDS011;14501;52.282;10.560;2022-11-15T12:43:43;4.45;;;3.63;;
26946;SDS011;14501;52.282;10.560;2022-11-15T12:46:19;7.03;;;3.53;;
26946;SDS011;14501;52.282;10.560;2022-11-15T12:59:47;6.25;;;3.60;;
26946;SDS011;14501;52.282;10.560;2022-11-15T13:02:33;4.15;;;3.28;;
26946;SDS011;14501;52.282;10.560;2022-11-15T13:22:44;5.70;;;3.63;;
26946;SDS011;14501;52.282;10.560;2022-11-15T13:27:48;5.50;;;3.60;;
26946;SDS011;14501;52.282;10.560;2022-11-15T13:30:22;4.45;;;3.28;;
26946;SDS011;14501;52.282;10.560;2022-11-15T13:32:50;7.90;;;4.47;;
26946;SDS011;14501;52.282;10.560;2022-11-15T13:35:20;4.97;;;3.22;;
26946;SDS011;14501;52.282;10.560;2022-11-15T13:37:52;4.80;;;3.60;;
26946;SDS011;14501;52.282;10.560;2022-11-15T13:42:55;5.68;;;3.85;;
26946;SDS011;14501;52.282;10.560;2022-11-15T13:45:23;11.40;;;5.07;;
26946;SDS011;14501;52.282;10.560;2022-11-15T13:47:56;8.13;;;4.28;;
26946;SDS011;14501;52.282;10.560;2022-11-15T13:50:25;8.48;;;4.18;;
26946;SDS011;14501;52.282;10.560;2022-11-15T13:52:56;8.00;;;3.88;;
26946;SDS011;14501;52.282;10.560;2022-11-15T13:55:24;8.80;;;4.47;;
26946;SDS011;14501;52.282;10.560;2022-11-15T14:00:37;6.53;;;4.05;;
26946;SDS011;14501;52.282;10.560;2022-11-15T14:03:18;7.22;;;4.32;;
26946;SDS011;14501;52.282;10.560;2022-11-15T14:06:01;5.70;;;3.53;;
26946;SDS011;14501;52.282;10.560;2022-11-15T14:08:40;7.00;;;4.28;;
26946;SDS011;14501;52.282;10.560;2022-11-15T14:11:26;5.68;;;4.03;;
26946;SDS011;14501;52.282;10.560;2022-11-15T14:14:04;9.55;;;3.67;;
26946;SDS011;14501;52.282;10.560;2022-11-15T14:19:04;11.50;;;4.40;;
26946;SDS011;14501;52.282;10.560;2022-11-15T14:21:31;7.03;;;4.00;;
26946;SDS011;14501;52.282;10.560;2022-11-15T14:26:42;7.57;;;3.78;;
26946;SDS011;14501;52.282;10.560;2022-11-15T14:29:28;4.95;;;3.60;;
26946;SDS011;14501;52.282;10.560;2022-11-15T14:32:05;5.78;;;3.40;;
26946;SDS011;14501;52.282;10.560;2022-11-15T14:34:39;7.28;;;4.10;;
26946;SDS011;14501;52.282;10.560;2022-11-15T14:37:04;7.63;;;4.20;;
26946;SDS011;14501;52.282;10.560;2022-11-15T14:39:33;7.47;;;4.32;;
26946;SDS011;14501;52.282;10.560;2022-11-15T14:41:58;8.27;;;4.00;;
26946;SDS011;14501;52.282;10.560;2022-11-15T14:44:24;5.68;;;4.03;;
26946;SDS011;14501;52.282;10.560;2022-11-15T14:46:49;8.40;;;4.30;;
26946;SDS011;14501;52.282;10.560;2022-11-15T14:49:15;7.30;;;4.07;;
26946;SDS011;14501;52.282;10.560;2022-11-15T14:51:41;5.15;;;3.78;;
26946;SDS011;14501;52.282;10.560;2022-11-15T14:54:09;7.18;;;4.22;;
26946;SDS011;14501;52.282;10.560;2022-11-15T14:56:35;7.22;;;4.55;;
26946;SDS011;14501;52.282;10.560;2022-11-15T14:59:01;7.28;;;4.28;;
26946;SDS011;14501;52.282;10.560;2022-11-15T15:01:26;13.25;;;5.07;;
26946;SDS011;14501;52.282;10.560;2022-11-15T15:03:52;6.55;;;4.45;;
26946;SDS011;14501;52.282;10.560;2022-11-15T15:06:23;5.63;;;4.10;;
26946;SDS011;14501;52.282;10.560;2022-11-15T15:08:49;10.25;;;4.25;;
26946;SDS011;14501;52.282;10.560;2022-11-15T15:11:25;8.13;;;4.75;;
26946;SDS011;14501;52.282;10.560;2022-11-15T15:13:52;8.00;;;4.10;;
26946;SDS011;14501;52.282;10.560;2022-11-15T15:16:21;7.57;;;4.75;;
26946;SDS011;14501;52.282;10.560;2022-11-15T15:18:47;7.85;;;4.28;;
26946;SDS011;14501;52.282;10.560;2022-11-15T15:21:23;8.52;;;5.45;;
26946;SDS011;14501;52.282;10.560;2022-11-15T15:23:51;7.47;;;4.57;;
26946;SDS011;14501;52.282;10.560;2022-11-15T15:26:19;8.43;;;4.65;;
26946;SDS011;14501;52.282;10.560;2022-11-15T15:28:45;10.05;;;5.43;;
26946;SDS011;14501;52.282;10.560;2022-11-15T15:31:11;7.57;;;4.88;;
26946;SDS011;14501;52.282;10.560;2022-11-15T15:33:37;8.23;;;4.82;;
26946;SDS011;14501;52.282;10.560;2022-11-15T15:36:02;9.23;;;4.93;;
26946;SDS011;14501;52.282;10.560;2022-11-15T15:38:28;12.43;;;5.40;;
26946;SDS011;14501;52.282;10.560;2022-11-15T15:40:54;10.93;;;5.40;;
26946;SDS011;14501;52.282;10.560;2022-11-15T15:43:20;7.97;;;4.78;;
26946;SDS011;14501;52.282;10.560;2022-11-15T15:45:45;8.70;;;4.80;;
26946;SDS011;14501;52.282;10.560;2022-11-15T15:48:15;8.05;;;5.15;;
26946;SDS011;14501;52.282;10.560;2022-11-15T15:50:42;9.02;;;5.22;;
26946;SDS011;14501;52.282;10.560;2022-11-15T15:53:08;6.82;;;4.75;;
26946;SDS011;14501;52.282;10.560;2022-11-15T15:55:35;13.40;;;5.25;;
26946;SDS011;14501;52.282;10.560;2022-11-15T15:58:02;11.80;;;5.72;;
26946;SDS011;14501;52.282;10.560;2022-11-15T16:00:28;12.32;;;5.13;;
26946;SDS011;14501;52.282;10.560;2022-11-15T16:02:57;11.50;;;5.40;;
26946;SDS011;14501;52.282;10.560;2022-11-15T16:05:23;17.02;;;6.18;;
26946;SDS011;14501;52.282;10.560;2022-11-15T16:07:49;14.27;;;8.75;;
26946;SDS011;14501;52.282;10.560;2022-11-15T16:12:50;8.68;;;5.28;;
26946;SDS011;14501;52.282;10.560;2022-11-15T16:15:16;8.60;;;5.22;;
26946;SDS011;14501;52.282;10.560;2022-11-15T16:17:44;7.53;;;5.15;;
26946;SDS011;14501;52.282;10.560;2022-11-15T16:20:24;8.40;;;5.47;;
26946;SDS011;14501;52.282;10.560;2022-11-15T16:22:58;13.98;;;6.10;;
26946;SDS011;14501;52.282;10.560;2022-11-15T16:25:24;11.35;;;5.85;;
26946;SDS011;14501;52.282;10.560;2022-11-15T16:27:50;13.75;;;6.00;;
26946;SDS011;14501;52.282;10.560;2022-11-15T16:30:16;9.95;;;5.43;;
26946;SDS011;14501;52.282;10.560;2022-11-15T16:32:43;11.10;;;5.40;;
26946;SDS011;14501;52.282;10.560;2022-11-15T16:35:12;11.07;;;6.03;;
26946;SDS011;14501;52.282;10.560;2022-11-15T16:37:39;10.88;;;5.80;;
26946;SDS011;14501;52.282;10.560;2022-11-15T16:40:14;12.77;;;7.10;;
26946;SDS011;14501;52.282;10.560;2022-11-15T16:42:51;11.95;;;6.50;;
26946;SDS011;14501;52.282;10.560;2022-11-15T16:45:16;14.40;;;7.20;;
26946;SDS011;14501;52.282;10.560;2022-11-15T16:47:42;13.98;;;7.07;;
26946;SDS011;14501;52.282;10.560;2022-11-15T16:50:20;14.65;;;7.00;;
26946;SDS011;14501;52.282;10.560;2022-11-15T16:52:56;12.52;;;7.20;;